createdAt,value
2022-08-24T00:01:38.479Z,3.72
2022-08-24T00:11:41.947Z,2.80
2022-08-24T00:21:46.426Z,3.22
2022-08-24T00:31:50.290Z,3.40
2022-08-24T00:41:54.968Z,3.45
2022-08-24T00:52:06.246Z,3.17
2022-08-24T01:02:16.082Z,3.20
2022-08-24T01:12:19.308Z,3.22
2022-08-24T01:22:43.471Z,3.63
2022-08-24T01:32:55.952Z,3.22
2022-08-24T01:42:59.065Z,3.63
2022-08-24T01:53:06.260Z,3.13
2022-08-24T02:03:09.418Z,3.65
2022-08-24T02:13:14.530Z,3.45
2022-08-24T02:23:18.747Z,3.70
2022-08-24T02:33:24.432Z,3.47
2022-08-24T02:43:27.628Z,3.45
2022-08-24T02:53:32.035Z,4.13
2022-08-24T03:03:35.903Z,3.58
2022-08-24T03:13:41.048Z,3.35
2022-08-24T03:23:44.203Z,4.03
2022-08-24T03:33:48.661Z,3.80
2022-08-24T03:43:51.789Z,3.88
2022-08-24T03:53:57.425Z,3.95
2022-08-24T04:04:00.835Z,4.18
2022-08-24T04:14:05.996Z,4.05
2022-08-24T04:24:10.391Z,4.03
2022-08-24T04:34:16.726Z,4.15
2022-08-24T04:44:20.147Z,4.10
2022-08-24T04:54:24.770Z,4.18
2022-08-24T05:04:27.925Z,4.53
2022-08-24T05:14:32.723Z,4.65
2022-08-24T05:24:35.821Z,4.75
2022-08-24T05:34:40.257Z,5.07
2022-08-24T05:44:43.350Z,4.63
2022-08-24T05:54:53.434Z,5.43
2022-08-24T06:04:56.498Z,3.80
2022-08-24T06:15:00.900Z,4.60
2022-08-24T06:25:22.025Z,4.63
2022-08-24T06:35:26.541Z,4.45
2022-08-24T06:45:32.823Z,3.80
2022-08-24T06:55:37.250Z,3.88
2022-08-24T07:05:40.613Z,3.40
2022-08-24T07:15:46.154Z,3.45
2022-08-24T07:25:54.205Z,3.00
2022-08-24T07:36:01.141Z,2.95
2022-08-24T07:46:06.455Z,2.88
2022-08-24T07:56:12.308Z,2.80
2022-08-24T08:06:17.037Z,3.30
2022-08-24T08:16:22.173Z,3.45
2022-08-24T08:26:25.500Z,3.38
2022-08-24T08:36:30.263Z,3.75
2022-08-24T08:46:45.955Z,3.60
2022-08-24T08:57:06.468Z,3.88
2022-08-24T09:07:21.837Z,3.25
2022-08-24T09:17:37.371Z,3.40
2022-08-24T09:27:51.547Z,3.90
2022-08-24T09:38:08.620Z,3.92
2022-08-24T09:48:42.124Z,4.00
2022-08-24T09:59:02.147Z,3.90
2022-08-24T10:09:28.375Z,3.05
2022-08-24T10:19:50.627Z,3.45
2022-08-24T10:30:36.255Z,3.28
2022-08-24T10:40:45.631Z,3.55
2022-08-24T10:50:57.748Z,2.90
2022-08-24T11:01:15.824Z,2.50
2022-08-24T11:11:27.185Z,2.03
2022-08-24T11:21:52.977Z,2.17
2022-08-24T11:31:56.099Z,2.35
2022-08-24T11:42:08.091Z,2.53
2022-08-24T11:52:16.730Z,2.10
2022-08-24T12:02:29.594Z,2.28
2022-08-24T12:12:41.911Z,2.38
2022-08-24T12:22:46.633Z,2.10
2022-08-24T12:32:54.780Z,2.67
2022-08-24T12:43:04.466Z,2.17
2022-08-24T12:53:37.914Z,2.17
2022-08-24T13:03:44.798Z,2.20
2022-08-24T13:14:05.297Z,1.98
2022-08-24T13:24:48.108Z,1.90
2022-08-24T13:34:52.946Z,1.80
2022-08-24T13:45:15.759Z,1.63
2022-08-24T13:55:43.530Z,1.73
2022-08-24T14:05:51.561Z,1.30
2022-08-24T14:16:26.234Z,1.80
2022-08-24T14:27:21.188Z,1.73
2022-08-24T14:37:34.876Z,1.52
2022-08-24T14:47:54.894Z,1.70
2022-08-24T14:58:10.024Z,1.50
2022-08-24T15:08:27.848Z,1.58
2022-08-24T15:18:40.663Z,1.40
2022-08-24T15:28:56.607Z,1.75
2022-08-24T15:39:01.842Z,1.60
2022-08-24T15:49:09.453Z,1.42
2022-08-24T15:59:28.347Z,1.40
2022-08-24T16:09:38.667Z,1.85
2022-08-24T16:19:50.783Z,1.30
2022-08-24T16:29:55.934Z,1.40
2022-08-24T16:40:00.590Z,1.20
2022-08-24T16:50:04.409Z,1.40
2022-08-24T17:00:15.255Z,1.50
2022-08-24T17:10:21.795Z,1.50
2022-08-24T17:20:26.695Z,1.80
2022-08-24T17:30:30.055Z,1.60
2022-08-24T17:40:35.977Z,1.70
2022-08-24T17:50:39.351Z,1.70
2022-08-24T18:00:44.306Z,1.80
2022-08-24T18:10:47.767Z,1.67
2022-08-24T18:20:52.320Z,1.75
2022-08-24T18:30:55.379Z,1.77
2022-08-24T18:41:01.700Z,2.20
2022-08-24T18:51:05.383Z,2.08
2022-08-24T19:01:10.169Z,2.22
2022-08-24T19:11:14.335Z,2.10
2022-08-24T19:21:19.123Z,2.30
2022-08-24T19:31:25.176Z,2.10
2022-08-24T19:41:36.812Z,2.60
2022-08-24T19:51:40.176Z,2.38
2022-08-24T20:01:44.734Z,2.30
2022-08-24T20:11:47.829Z,2.47
2022-08-24T20:21:52.223Z,1.95
2022-08-24T20:31:57.068Z,2.25
2022-08-24T20:42:02.591Z,2.13
2022-08-24T20:52:05.855Z,1.80
2022-08-24T21:02:10.486Z,2.05
2022-08-24T21:12:14.083Z,2.40
2022-08-24T21:22:18.498Z,2.15
2022-08-24T21:32:38.801Z,2.38
2022-08-24T21:42:43.397Z,2.33
2022-08-24T21:52:46.660Z,2.60
2022-08-24T22:02:55.677Z,2.50
2022-08-24T22:13:03.872Z,2.38
2022-08-24T22:23:08.849Z,2.45
2022-08-24T22:33:11.889Z,2.58
2022-08-24T22:43:16.301Z,2.63
2022-08-24T22:53:19.363Z,2.30
2022-08-24T23:03:23.765Z,2.80
2022-08-24T23:13:28.671Z,2.78
2022-08-24T23:23:33.257Z,2.90
2022-08-24T23:33:39.422Z,3.00
2022-08-24T23:43:44.286Z,2.63
2022-08-24T23:53:49.020Z,3.00
